createdAt,value
2023-05-19T00:00:11.715Z,96366
2023-05-19T00:01:11.724Z,96365
2023-05-19T00:02:11.722Z,96365
2023-05-19T00:03:11.829Z,96368
2023-05-19T00:04:11.720Z,96366
2023-05-19T00:05:11.710Z,96366
2023-05-19T00:06:11.788Z,96366
2023-05-19T00:07:11.702Z,96367
2023-05-19T00:08:11.732Z,96367
2023-05-19T00:09:11.745Z,96366
2023-05-19T00:10:11.685Z,96362
2023-05-19T00:12:11.755Z,96364
2023-05-19T00:13:11.748Z,96362
2023-05-19T00:15:11.708Z,96362
2023-05-19T00:16:11.759Z,96357
2023-05-19T00:17:11.743Z,96357
2023-05-19T00:18:11.759Z,96357
2023-05-19T00:20:11.744Z,96357
2023-05-19T00:21:11.766Z,96355
2023-05-19T00:23:11.736Z,96351
2023-05-19T00:24:11.765Z,96351
2023-05-19T00:25:11.780Z,96350
2023-05-19T00:26:11.748Z,96351
2023-05-19T00:27:11.777Z,96351
2023-05-19T00:28:11.723Z,96347
2023-05-19T00:29:11.767Z,96345
2023-05-19T00:30:11.792Z,96345
2023-05-19T00:31:11.734Z,96347
2023-05-19T00:32:11.757Z,96344
2023-05-19T00:33:11.795Z,96343
2023-05-19T00:34:11.737Z,96345
2023-05-19T00:35:11.758Z,96346
2023-05-19T00:36:11.759Z,96346
2023-05-19T00:38:11.834Z,96346
2023-05-19T00:39:11.772Z,96344
2023-05-19T00:40:11.772Z,96344
2023-05-19T00:42:11.796Z,96344
2023-05-19T00:43:11.793Z,96342
2023-05-19T00:44:11.798Z,96340
2023-05-19T00:47:11.776Z,96336
2023-05-19T00:50:11.833Z,96336
2023-05-19T00:51:11.827Z,96333
2023-05-19T00:52:11.831Z,96332
2023-05-19T00:55:11.863Z,96333
2023-05-19T00:56:11.808Z,96333
2023-05-19T00:57:11.787Z,96331
2023-05-19T00:58:11.832Z,96328
2023-05-19T00:59:11.850Z,96327
2023-05-19T01:02:11.872Z,96325
2023-05-19T01:03:12.025Z,96322
2023-05-19T01:04:11.898Z,96320
2023-05-19T01:06:11.848Z,96322
2023-05-19T01:07:11.894Z,96319
2023-05-19T01:08:11.892Z,96320
2023-05-19T01:09:11.931Z,96320
2023-05-19T01:10:11.842Z,96321
2023-05-19T01:12:11.885Z,96322
2023-05-19T01:13:11.902Z,96321
2023-05-19T01:14:11.850Z,96321
2023-05-19T01:15:11.841Z,96320
2023-05-19T01:16:11.864Z,96318
2023-05-19T01:17:11.861Z,96315
2023-05-19T01:18:12.063Z,96316
2023-05-19T01:19:11.984Z,96313
2023-05-19T01:20:11.886Z,96313
2023-05-19T01:21:11.899Z,96317
2023-05-19T01:23:11.912Z,96318
2023-05-19T01:24:11.925Z,96319
2023-05-19T01:26:11.918Z,96321
2023-05-19T01:27:11.919Z,96322
2023-05-19T01:28:11.878Z,96322
2023-05-19T01:30:11.929Z,96326
2023-05-19T01:31:11.884Z,96326
2023-05-19T01:32:12.043Z,96325
2023-05-19T01:34:11.925Z,96327
2023-05-19T01:36:11.913Z,96325
2023-05-19T01:38:11.908Z,96330
2023-05-19T01:39:11.951Z,96325
2023-05-19T01:40:11.913Z,96330
2023-05-19T01:41:11.901Z,96330
2023-05-19T01:42:11.949Z,96329
2023-05-19T01:44:11.930Z,96331
2023-05-19T01:45:11.971Z,96325
2023-05-19T01:46:12.083Z,96323
2023-05-19T01:47:11.978Z,96327
2023-05-19T01:48:12.047Z,96324
2023-05-19T01:49:11.954Z,96324
2023-05-19T01:50:11.972Z,96328
2023-05-19T01:51:12.014Z,96324
2023-05-19T01:52:12.006Z,96326
2023-05-19T01:55:12.000Z,96326
2023-05-19T01:56:11.955Z,96326
2023-05-19T01:58:11.973Z,96327
2023-05-19T01:59:12.015Z,96327
2023-05-19T02:00:12.011Z,96333
2023-05-19T02:01:12.015Z,96333
2023-05-19T02:02:11.968Z,96329
2023-05-19T02:03:12.026Z,96329
2023-05-19T02:04:12.049Z,96330
2023-05-19T02:05:12.008Z,96328
2023-05-19T02:06:12.026Z,96332
2023-05-19T02:07:12.004Z,96332
2023-05-19T02:08:12.062Z,96331
2023-05-19T02:09:12.048Z,96331
2023-05-19T02:10:11.979Z,96327
2023-05-19T02:11:12.031Z,96328
2023-05-19T02:12:12.035Z,96327
2023-05-19T02:13:12.074Z,96327
2023-05-19T02:14:12.034Z,96327
2023-05-19T02:15:12.009Z,96327
2023-05-19T02:16:12.145Z,96323
2023-05-19T02:17:12.039Z,96323
2023-05-19T02:18:12.104Z,96321
2023-05-19T02:19:12.125Z,96325
2023-05-19T02:20:12.064Z,96326
2023-05-19T02:21:12.075Z,96322
2023-05-19T02:22:12.057Z,96321
2023-05-19T02:23:12.037Z,96321
2023-05-19T02:24:12.088Z,96321
2023-05-19T02:26:12.076Z,96319
2023-05-19T02:27:12.092Z,96319
2023-05-19T02:28:12.053Z,96319
2023-05-19T02:29:12.113Z,96319
2023-05-19T02:31:12.049Z,96315
2023-05-19T02:32:12.122Z,96314
2023-05-19T02:33:12.114Z,96312
2023-05-19T02:34:12.103Z,96305
2023-05-19T02:35:12.099Z,96304
2023-05-19T02:36:12.086Z,96304
2023-05-19T02:37:12.095Z,96305
2023-05-19T02:38:12.065Z,96305
2023-05-19T02:39:12.103Z,96306
2023-05-19T02:40:12.091Z,96305
2023-05-19T02:41:12.102Z,96303
2023-05-19T02:42:12.110Z,96304
2023-05-19T02:43:12.086Z,96304
2023-05-19T02:44:12.122Z,96303
2023-05-19T02:45:12.101Z,96303
2023-05-19T02:46:12.138Z,96301
2023-05-19T02:48:12.176Z,96298
2023-05-19T02:49:12.086Z,96296
2023-05-19T02:50:12.113Z,96298
2023-05-19T02:51:12.081Z,96298
2023-05-19T02:52:12.142Z,96296
2023-05-19T02:54:12.158Z,96299
2023-05-19T02:55:12.163Z,96296
2023-05-19T02:56:12.119Z,96296
2023-05-19T02:57:12.162Z,96299
2023-05-19T02:58:12.126Z,96299
2023-05-19T02:59:12.117Z,96297
2023-05-19T03:01:12.150Z,96301
2023-05-19T03:02:12.188Z,96301
2023-05-19T03:03:12.234Z,96298
2023-05-19T03:04:12.145Z,96298
2023-05-19T03:05:12.152Z,96300
2023-05-19T03:06:12.171Z,96302
2023-05-19T03:07:12.159Z,96299
2023-05-19T03:08:12.195Z,96297
2023-05-19T03:09:12.121Z,96297
2023-05-19T03:10:12.128Z,96296
2023-05-19T03:11:12.217Z,96295
2023-05-19T03:12:12.149Z,96297
2023-05-19T03:13:12.153Z,96295
2023-05-19T03:14:12.150Z,96295
2023-05-19T03:16:12.267Z,96296
2023-05-19T03:17:12.193Z,96295
2023-05-19T03:18:12.228Z,96294
2023-05-19T03:19:12.219Z,96294
2023-05-19T03:20:12.151Z,96296
2023-05-19T03:21:12.195Z,96294
2023-05-19T03:22:12.259Z,96295
2023-05-19T03:24:12.214Z,96295
2023-05-19T03:25:12.192Z,96295
2023-05-19T03:26:12.238Z,96293
2023-05-19T03:27:12.242Z,96293
2023-05-19T03:28:12.224Z,96295
2023-05-19T03:29:12.211Z,96293
2023-05-19T03:30:12.187Z,96293
2023-05-19T03:31:12.227Z,96293
2023-05-19T03:32:12.289Z,96292
2023-05-19T03:33:12.306Z,96298
2023-05-19T03:34:12.270Z,96296
2023-05-19T03:35:12.266Z,96296
2023-05-19T03:36:12.266Z,96297
2023-05-19T03:37:12.292Z,96298
2023-05-19T03:38:12.203Z,96298
2023-05-19T03:39:12.269Z,96300
2023-05-19T03:40:12.263Z,96300
2023-05-19T03:41:12.240Z,96298
2023-05-19T03:42:12.277Z,96303
2023-05-19T03:43:12.243Z,96303
2023-05-19T03:44:12.250Z,96302
2023-05-19T03:45:12.234Z,96302
2023-05-19T03:46:12.266Z,96301
2023-05-19T03:47:12.292Z,96311
2023-05-19T03:48:12.253Z,96311
2023-05-19T03:49:12.289Z,96308
2023-05-19T03:50:12.248Z,96315
2023-05-19T03:51:12.289Z,96311
2023-05-19T03:52:12.306Z,96311
2023-05-19T03:53:12.262Z,96314
2023-05-19T03:54:12.279Z,96311
2023-05-19T03:55:12.294Z,96310
2023-05-19T03:56:12.280Z,96310
2023-05-19T03:57:12.316Z,96316
2023-05-19T03:58:12.303Z,96316
2023-05-19T03:59:12.262Z,96316
2023-05-19T04:00:12.348Z,96316
2023-05-19T04:01:12.325Z,96315
2023-05-19T04:02:12.365Z,96314
2023-05-19T04:03:12.561Z,96313
2023-05-19T04:04:12.321Z,96313
2023-05-19T04:05:12.334Z,96316
2023-05-19T04:06:12.331Z,96316
2023-05-19T04:07:12.271Z,96316
2023-05-19T04:08:12.334Z,96313
2023-05-19T04:09:12.287Z,96313
2023-05-19T04:10:12.349Z,96317
2023-05-19T04:11:12.325Z,96317
2023-05-19T04:12:12.339Z,96314
2023-05-19T04:13:12.338Z,96316
2023-05-19T04:14:12.308Z,96316
2023-05-19T04:16:12.404Z,96319
2023-05-19T04:17:12.353Z,96316
2023-05-19T04:18:12.462Z,96316
2023-05-19T04:19:12.374Z,96318
2023-05-19T04:20:12.309Z,96318
2023-05-19T04:21:12.363Z,96317
2023-05-19T04:22:12.402Z,96321
2023-05-19T04:23:12.372Z,96322
2023-05-19T04:24:12.363Z,96322
2023-05-19T04:25:12.364Z,96323
2023-05-19T04:26:12.404Z,96324
2023-05-19T04:27:12.446Z,96326
2023-05-19T04:28:12.403Z,96328
2023-05-19T04:31:12.459Z,96325
2023-05-19T04:32:12.405Z,96325
2023-05-19T04:33:12.402Z,96322
2023-05-19T04:34:12.393Z,96328
2023-05-19T04:35:12.361Z,96328
2023-05-19T04:36:12.447Z,96323
2023-05-19T04:37:12.422Z,96323
2023-05-19T04:38:12.389Z,96325
2023-05-19T04:39:12.449Z,96325
2023-05-19T04:40:12.396Z,96328
2023-05-19T04:41:12.405Z,96329
2023-05-19T04:42:12.427Z,96329
2023-05-19T04:43:12.433Z,96328
2023-05-19T04:44:12.414Z,96336
2023-05-19T04:45:12.475Z,96330
2023-05-19T04:46:13.865Z,96330
2023-05-19T04:47:12.515Z,96325
2023-05-19T04:48:12.452Z,96333
2023-05-19T04:49:12.423Z,96333
2023-05-19T04:50:12.464Z,96334
2023-05-19T04:51:12.429Z,96333
2023-05-19T04:52:12.410Z,96333
2023-05-19T04:54:12.465Z,96337
2023-05-19T04:56:12.418Z,96337
2023-05-19T04:57:12.439Z,96338
2023-05-19T04:58:12.446Z,96333
2023-05-19T04:59:12.415Z,96333
2023-05-19T05:00:12.454Z,96343
2023-05-19T05:01:12.484Z,96343
2023-05-19T05:02:12.612Z,96342
2023-05-19T05:05:12.456Z,96344
2023-05-19T05:07:12.510Z,96343
2023-05-19T05:08:12.469Z,96343
2023-05-19T05:09:12.468Z,96345
2023-05-19T05:10:12.488Z,96343
2023-05-19T05:11:12.483Z,96346
2023-05-19T05:12:12.467Z,96346
2023-05-19T05:13:12.509Z,96340
2023-05-19T05:14:12.455Z,96341
2023-05-19T05:15:12.498Z,96338
2023-05-19T05:16:12.564Z,96336
2023-05-19T05:17:12.443Z,96336
2023-05-19T05:18:12.511Z,96340
2023-05-19T05:19:12.529Z,96338
2023-05-19T05:20:12.494Z,96338
2023-05-19T05:21:12.560Z,96338
2023-05-19T05:22:12.523Z,96341
2023-05-19T05:23:12.529Z,96341
2023-05-19T05:24:12.541Z,96338
2023-05-19T05:25:12.480Z,96338
2023-05-19T05:26:12.516Z,96338
2023-05-19T05:27:12.493Z,96338
2023-05-19T05:28:12.510Z,96338
2023-05-19T05:29:12.519Z,96336
2023-05-19T05:30:12.480Z,96336
2023-05-19T05:31:12.534Z,96335
2023-05-19T05:32:12.618Z,96335
2023-05-19T05:33:12.753Z,96336
2023-05-19T05:34:12.532Z,96335
2023-05-19T05:35:12.545Z,96337
2023-05-19T05:36:12.512Z,96337
2023-05-19T05:37:13.869Z,96332
2023-05-19T05:39:12.505Z,96332
2023-05-19T05:40:12.662Z,96337
2023-05-19T05:41:12.524Z,96330
2023-05-19T05:42:12.522Z,96332
2023-05-19T05:43:12.541Z,96332
2023-05-19T05:44:12.574Z,96334
2023-05-19T05:46:12.585Z,96329
2023-05-19T05:47:12.585Z,96329
2023-05-19T05:48:12.641Z,96331
2023-05-19T05:49:12.601Z,96332
2023-05-19T05:50:12.601Z,96332
2023-05-19T05:51:12.589Z,96336
2023-05-19T05:53:12.588Z,96334
2023-05-19T05:54:12.574Z,96334
2023-05-19T05:55:12.588Z,96336
2023-05-19T05:56:12.556Z,96336
2023-05-19T05:57:12.583Z,96335
2023-05-19T05:58:12.631Z,96339
2023-05-19T05:59:12.577Z,96339
2023-05-19T06:00:12.553Z,96339
2023-05-19T06:01:12.644Z,96339
2023-05-19T06:02:12.629Z,96339
2023-05-19T06:03:12.658Z,96339
2023-05-19T06:04:12.612Z,96332
2023-05-19T06:05:12.695Z,96336
2023-05-19T06:06:12.608Z,96336
2023-05-19T06:07:12.612Z,96336
2023-05-19T06:08:12.644Z,96340
2023-05-19T06:09:12.571Z,96340
2023-05-19T06:10:12.637Z,96339
2023-05-19T06:12:12.626Z,96339
2023-05-19T06:13:12.634Z,96338
2023-05-19T06:14:12.629Z,96338
2023-05-19T06:15:12.678Z,96334
2023-05-19T06:16:12.696Z,96334
2023-05-19T06:18:12.705Z,96337
2023-05-19T06:19:12.727Z,96340
2023-05-19T06:20:12.644Z,96340
2023-05-19T06:22:12.637Z,96341
2023-05-19T06:23:12.684Z,96336
2023-05-19T06:24:12.665Z,96333
2023-05-19T06:25:12.669Z,96336
2023-05-19T06:26:12.710Z,96332
2023-05-19T06:27:12.693Z,96332
2023-05-19T06:28:12.674Z,96338
2023-05-19T06:29:12.647Z,96338
2023-05-19T06:31:12.704Z,96339
2023-05-19T06:32:12.667Z,96339
2023-05-19T06:33:12.671Z,96337
2023-05-19T06:34:12.810Z,96342
2023-05-19T06:35:12.633Z,96342
2023-05-19T06:36:12.694Z,96344
2023-05-19T06:37:12.698Z,96348
2023-05-19T06:38:12.696Z,96342
2023-05-19T06:39:12.688Z,96342
2023-05-19T06:40:12.713Z,96343
2023-05-19T06:41:12.694Z,96343
2023-05-19T06:42:12.873Z,96344
2023-05-19T06:43:12.727Z,96345
2023-05-19T06:44:12.750Z,96344
2023-05-19T06:45:12.742Z,96343
2023-05-19T06:46:12.744Z,96343
2023-05-19T06:47:12.828Z,96351
2023-05-19T06:48:12.756Z,96355
2023-05-19T06:49:12.789Z,96355
2023-05-19T06:50:12.747Z,96353
2023-05-19T06:51:12.728Z,96357
2023-05-19T06:52:12.751Z,96353
2023-05-19T06:53:12.740Z,96353
2023-05-19T06:54:12.727Z,96353
2023-05-19T06:55:12.752Z,96350
2023-05-19T06:56:12.778Z,96349
2023-05-19T06:57:12.747Z,96353
2023-05-19T06:58:12.714Z,96353
2023-05-19T06:59:12.708Z,96356
2023-05-19T07:00:14.610Z,96357
2023-05-19T07:01:12.787Z,96358
2023-05-19T07:02:12.895Z,96358
2023-05-19T07:03:12.872Z,96359
2023-05-19T07:04:12.851Z,96359
2023-05-19T07:05:12.811Z,96357
2023-05-19T07:08:12.773Z,96357
2023-05-19T07:09:12.748Z,96357
2023-05-19T07:10:12.797Z,96360
2023-05-19T07:11:12.778Z,96360
2023-05-19T07:12:12.773Z,96356
2023-05-19T07:13:12.792Z,96358
2023-05-19T07:14:12.767Z,96358
2023-05-19T07:15:12.779Z,96358
2023-05-19T07:16:12.836Z,96364
2023-05-19T07:17:12.826Z,96364
2023-05-19T07:18:12.932Z,96364
2023-05-19T07:19:12.863Z,96368
2023-05-19T07:20:12.792Z,96368
2023-05-19T07:22:12.852Z,96360
2023-05-19T07:23:12.820Z,96360
2023-05-19T07:24:12.858Z,96360
2023-05-19T07:25:12.781Z,96355
2023-05-19T07:26:12.822Z,96360
2023-05-19T07:27:12.836Z,96357
2023-05-19T07:28:12.811Z,96357
2023-05-19T07:29:12.860Z,96357
2023-05-19T07:30:12.805Z,96357
2023-05-19T07:31:12.838Z,96347
2023-05-19T07:32:12.896Z,96347
2023-05-19T07:33:12.854Z,96349
2023-05-19T07:34:12.829Z,96343
2023-05-19T07:35:12.880Z,96346
2023-05-19T07:36:12.850Z,96346
2023-05-19T07:37:12.862Z,96353
2023-05-19T07:38:12.833Z,96353
2023-05-19T07:39:12.922Z,96349
2023-05-19T07:40:12.847Z,96348
2023-05-19T07:41:12.820Z,96352
2023-05-19T07:42:12.857Z,96351
2023-05-19T07:43:12.824Z,96351
2023-05-19T07:44:13.146Z,96347
2023-05-19T07:45:12.832Z,96346
2023-05-19T07:46:12.896Z,96346
2023-05-19T07:47:12.884Z,96346
2023-05-19T07:48:12.930Z,96346
2023-05-19T07:49:12.908Z,96347
2023-05-19T07:50:12.924Z,96351
2023-05-19T07:51:12.859Z,96351
2023-05-19T07:52:12.882Z,96354
2023-05-19T07:53:12.901Z,96354
2023-05-19T07:54:12.845Z,96361
2023-05-19T07:55:12.876Z,96359
2023-05-19T07:56:12.915Z,96358
2023-05-19T07:57:12.924Z,96354
2023-05-19T07:58:12.933Z,96358
2023-05-19T07:59:12.853Z,96358
2023-05-19T08:00:12.928Z,96354
2023-05-19T08:01:12.941Z,96357
2023-05-19T08:02:13.025Z,96357
2023-05-19T08:03:13.220Z,96360
2023-05-19T08:04:13.357Z,96360
2023-05-19T08:05:12.899Z,96355
2023-05-19T08:06:12.949Z,96356
2023-05-19T08:07:12.896Z,96353
2023-05-19T08:09:12.892Z,96351
2023-05-19T08:10:12.946Z,96349
2023-05-19T08:11:12.946Z,96347
2023-05-19T08:13:12.953Z,96347
2023-05-19T08:14:12.969Z,96343
2023-05-19T08:15:12.967Z,96344
2023-05-19T08:16:12.994Z,96344
2023-05-19T08:17:12.906Z,96346
2023-05-19T08:18:13.031Z,96345
2023-05-19T08:19:13.012Z,96345
2023-05-19T08:20:12.952Z,96346
2023-05-19T08:21:13.002Z,96344
2023-05-19T08:22:12.940Z,96344
2023-05-19T08:23:12.970Z,96344
2023-05-19T08:24:12.921Z,96344
2023-05-19T08:25:12.951Z,96339
2023-05-19T08:26:12.939Z,96340
2023-05-19T08:27:12.977Z,96338
2023-05-19T08:28:12.974Z,96339
2023-05-19T08:29:12.968Z,96339
2023-05-19T08:30:12.976Z,96340
2023-05-19T08:31:13.038Z,96332
2023-05-19T08:32:13.330Z,96332
2023-05-19T08:33:13.061Z,96336
2023-05-19T08:34:12.996Z,96334
2023-05-19T08:35:12.948Z,96334
2023-05-19T08:36:13.005Z,96333
2023-05-19T08:37:13.010Z,96325
2023-05-19T08:38:12.970Z,96325
2023-05-19T08:39:13.007Z,96327
2023-05-19T08:40:13.006Z,96325
2023-05-19T08:41:13.022Z,96330
2023-05-19T08:42:13.041Z,96331
2023-05-19T08:43:12.995Z,96331
2023-05-19T08:44:13.023Z,96325
2023-05-19T08:45:13.010Z,96328
2023-05-19T08:46:13.271Z,96321
2023-05-19T08:47:12.996Z,96321
2023-05-19T08:48:13.062Z,96324
2023-05-19T08:50:13.058Z,96326
2023-05-19T08:51:13.040Z,96324
2023-05-19T08:52:13.043Z,96324
2023-05-19T08:53:24.986Z,96324
2023-05-19T08:54:12.996Z,96324
2023-05-19T08:55:13.116Z,96328
2023-05-19T08:56:13.025Z,96328
2023-05-19T08:57:13.041Z,96323
2023-05-19T08:58:13.082Z,96325
2023-05-19T08:59:13.079Z,96327
2023-05-19T09:00:13.034Z,96327
2023-05-19T09:01:13.173Z,96326
2023-05-19T09:02:13.013Z,96325
2023-05-19T09:03:22.869Z,96325
2023-05-19T09:04:13.218Z,96325
2023-05-19T09:05:13.103Z,96328
2023-05-19T09:06:13.043Z,96328
2023-05-19T09:07:13.041Z,96325
2023-05-19T09:09:13.100Z,96328
2023-05-19T09:10:13.073Z,96330
2023-05-19T09:11:13.107Z,96331
2023-05-19T09:12:13.069Z,96328
2023-05-19T09:13:13.069Z,96328
2023-05-19T09:14:13.060Z,96327
2023-05-19T09:15:13.150Z,96324
2023-05-19T09:16:13.125Z,96324
2023-05-19T09:17:13.099Z,96324
2023-05-19T09:18:13.112Z,96322
2023-05-19T09:19:13.165Z,96322
2023-05-19T09:20:13.177Z,96321
2023-05-19T09:21:13.128Z,96325
2023-05-19T09:22:13.096Z,96325
2023-05-19T09:23:13.116Z,96327
2023-05-19T09:24:13.133Z,96326
2023-05-19T09:25:13.162Z,96326
2023-05-19T09:26:13.153Z,96327
2023-05-19T09:27:13.106Z,96324
2023-05-19T09:28:13.143Z,96326
2023-05-19T09:29:13.151Z,96326
2023-05-19T09:30:13.148Z,96328
2023-05-19T09:31:13.187Z,96327
2023-05-19T09:32:13.135Z,96329
2023-05-19T09:34:13.121Z,96324
2023-05-19T09:35:13.135Z,96321
2023-05-19T09:36:13.203Z,96320
2023-05-19T09:37:13.154Z,96320
2023-05-19T09:38:13.142Z,96320
2023-05-19T09:39:13.151Z,96316
2023-05-19T09:40:13.159Z,96320
2023-05-19T09:41:13.154Z,96319
2023-05-19T09:42:13.170Z,96323
2023-05-19T09:43:13.110Z,96323
2023-05-19T09:44:13.153Z,96322
2023-05-19T09:45:13.208Z,96325
2023-05-19T09:47:13.157Z,96321
2023-05-19T09:48:13.158Z,96321
2023-05-19T09:49:13.178Z,96325
2023-05-19T09:50:13.182Z,96321
2023-05-19T09:51:13.234Z,96321
2023-05-19T09:52:13.203Z,96319
2023-05-19T09:53:13.156Z,96319
2023-05-19T09:54:13.192Z,96321
2023-05-19T09:55:13.203Z,96322
2023-05-19T09:56:13.140Z,96322
2023-05-19T09:57:13.193Z,96316
2023-05-19T09:59:13.223Z,96322
2023-05-19T10:00:13.217Z,96319
2023-05-19T10:01:13.234Z,96319
2023-05-19T10:02:13.191Z,96318
2023-05-19T10:03:13.260Z,96318
2023-05-19T10:04:13.171Z,96318
2023-05-19T10:05:13.290Z,96321
2023-05-19T10:06:13.298Z,96325
2023-05-19T10:07:13.246Z,96325
2023-05-19T10:08:13.261Z,96323
2023-05-19T10:09:13.201Z,96323
2023-05-19T10:10:13.270Z,96318
2023-05-19T10:11:13.234Z,96313
2023-05-19T10:12:13.255Z,96318
2023-05-19T10:13:13.264Z,96319
2023-05-19T10:14:13.193Z,96319
2023-05-19T10:15:13.244Z,96314
2023-05-19T10:16:13.321Z,96316
2023-05-19T10:17:13.227Z,96316
2023-05-19T10:18:13.326Z,96315
2023-05-19T10:19:13.281Z,96311
2023-05-19T10:20:13.201Z,96311
2023-05-19T10:21:13.249Z,96316
2023-05-19T10:22:13.225Z,96316
2023-05-19T10:23:13.225Z,96315
2023-05-19T10:24:13.453Z,96314
2023-05-19T10:25:13.270Z,96313
2023-05-19T10:26:13.270Z,96313
2023-05-19T10:27:13.250Z,96312
2023-05-19T10:28:13.268Z,96314
2023-05-19T10:29:13.281Z,96315
2023-05-19T10:32:13.372Z,96309
2023-05-19T10:33:13.369Z,96307
2023-05-19T10:34:13.295Z,96307
2023-05-19T10:35:13.251Z,96309
2023-05-19T10:36:13.285Z,96310
2023-05-19T10:37:13.312Z,96305
2023-05-19T10:38:13.275Z,96305
2023-05-19T10:40:13.315Z,96308
2023-05-19T10:41:13.332Z,96308
2023-05-19T10:42:13.295Z,96308
2023-05-19T10:43:13.292Z,96308
2023-05-19T10:44:13.332Z,96306
2023-05-19T10:46:13.389Z,96307
2023-05-19T10:47:13.488Z,96305
2023-05-19T10:48:13.342Z,96305
2023-05-19T10:49:13.314Z,96305
2023-05-19T10:50:13.358Z,96302
2023-05-19T10:51:13.338Z,96303
2023-05-19T10:52:13.355Z,96304
2023-05-19T10:53:13.329Z,96304
2023-05-19T10:54:14.413Z,96307
2023-05-19T10:55:13.352Z,96307
2023-05-19T10:56:13.319Z,96305
2023-05-19T10:57:13.396Z,96304
2023-05-19T10:58:13.381Z,96304
2023-05-19T10:59:13.385Z,96304
2023-05-19T11:00:13.345Z,96304
2023-05-19T11:01:13.333Z,96307
2023-05-19T11:02:13.417Z,96309
2023-05-19T11:03:13.480Z,96311
2023-05-19T11:04:13.384Z,96311
2023-05-19T11:05:13.374Z,96315
2023-05-19T11:06:13.397Z,96309
2023-05-19T11:07:13.369Z,96309
2023-05-19T11:08:13.398Z,96312
2023-05-19T11:09:13.337Z,96306
2023-05-19T11:10:13.567Z,96307
2023-05-19T11:11:13.371Z,96301
2023-05-19T11:12:13.430Z,96304
2023-05-19T11:13:14.951Z,96304
2023-05-19T11:14:13.394Z,96304
2023-05-19T11:15:13.391Z,96302
2023-05-19T11:16:13.421Z,96300
2023-05-19T11:17:13.368Z,96300
2023-05-19T11:18:13.409Z,96299
2023-05-19T11:19:13.488Z,96302
2023-05-19T11:20:13.479Z,96302
2023-05-19T11:21:13.444Z,96296
2023-05-19T11:22:13.439Z,96295
2023-05-19T11:23:13.454Z,96294
2023-05-19T11:24:13.438Z,96294
2023-05-19T11:25:13.444Z,96288
2023-05-19T11:26:13.455Z,96285
2023-05-19T11:27:13.388Z,96285
2023-05-19T11:28:13.469Z,96285
2023-05-19T11:29:13.462Z,96286
2023-05-19T11:30:13.419Z,96288
2023-05-19T11:31:13.428Z,96293
2023-05-19T11:32:13.500Z,96292
2023-05-19T11:33:13.525Z,96292
2023-05-19T11:34:13.427Z,96295
2023-05-19T11:36:13.468Z,96298
2023-05-19T11:37:13.475Z,96298
2023-05-19T11:38:13.418Z,96291
2023-05-19T11:39:13.467Z,96289
2023-05-19T11:40:13.512Z,96291
2023-05-19T11:41:13.481Z,96288
2023-05-19T11:42:13.476Z,96286
2023-05-19T11:43:13.444Z,96284
2023-05-19T11:44:13.503Z,96284
2023-05-19T11:45:13.472Z,96278
2023-05-19T11:46:13.551Z,96273
2023-05-19T11:47:13.499Z,96273
2023-05-19T11:48:13.586Z,96270
2023-05-19T11:49:13.525Z,96275
2023-05-19T11:50:13.489Z,96271
2023-05-19T11:51:13.467Z,96271
2023-05-19T11:52:13.513Z,96273
2023-05-19T11:53:13.548Z,96273
2023-05-19T11:55:13.535Z,96270
2023-05-19T11:56:13.457Z,96270
2023-05-19T11:57:13.457Z,96273
2023-05-19T11:58:13.529Z,96268
2023-05-19T12:00:13.534Z,96266
2023-05-19T12:01:13.537Z,96266
2023-05-19T12:02:13.598Z,96264
2023-05-19T12:03:13.773Z,96263
2023-05-19T12:04:13.484Z,96266
2023-05-19T12:05:13.618Z,96267
2023-05-19T12:06:13.557Z,96269
2023-05-19T12:07:13.499Z,96269
2023-05-19T12:08:13.536Z,96270
2023-05-19T12:09:13.497Z,96270
2023-05-19T12:10:13.550Z,96266
2023-05-19T12:11:13.569Z,96266
2023-05-19T12:12:13.599Z,96266
2023-05-19T12:13:13.563Z,96271
2023-05-19T12:14:13.529Z,96271
2023-05-19T12:15:13.540Z,96270
2023-05-19T12:16:13.577Z,96267
2023-05-19T12:17:13.532Z,96267
2023-05-19T12:18:13.581Z,96269
2023-05-19T12:19:13.643Z,96269
2023-05-19T12:20:13.591Z,96267
2023-05-19T12:21:13.586Z,96265
2023-05-19T12:22:13.519Z,96265
2023-05-19T12:23:13.548Z,96266
2023-05-19T12:24:13.569Z,96268
2023-05-19T12:25:13.532Z,96269
2023-05-19T12:26:13.598Z,96269
2023-05-19T12:27:13.608Z,96265
2023-05-19T12:28:13.592Z,96267
2023-05-19T12:29:13.554Z,96267
2023-05-19T12:30:13.570Z,96270
2023-05-19T12:31:13.662Z,96261
2023-05-19T12:32:13.560Z,96261
2023-05-19T12:33:13.624Z,96261
2023-05-19T12:34:13.584Z,96255
2023-05-19T12:35:13.557Z,96255
2023-05-19T12:36:13.649Z,96255
2023-05-19T12:37:13.586Z,96254
2023-05-19T12:38:13.595Z,96251
2023-05-19T12:39:13.620Z,96252
2023-05-19T12:40:13.581Z,96252
2023-05-19T12:41:13.605Z,96254
2023-05-19T12:42:13.606Z,96255
2023-05-19T12:43:13.574Z,96249
2023-05-19T12:44:13.620Z,96250
2023-05-19T12:45:13.676Z,96247
2023-05-19T12:46:13.657Z,96247
2023-05-19T12:47:13.595Z,96244
2023-05-19T12:48:13.661Z,96245
2023-05-19T12:49:13.643Z,96243
2023-05-19T12:50:13.656Z,96242
2023-05-19T12:51:13.647Z,96239
2023-05-19T12:52:13.650Z,96243
2023-05-19T12:53:13.613Z,96243
2023-05-19T12:54:13.685Z,96234
2023-05-19T12:55:13.745Z,96238
2023-05-19T12:56:13.609Z,96238
2023-05-19T12:57:13.661Z,96239
2023-05-19T12:58:13.705Z,96239
2023-05-19T12:59:15.318Z,96235
2023-05-19T13:00:13.715Z,96234
2023-05-19T13:01:13.848Z,96234
2023-05-19T13:02:13.773Z,96236
2023-05-19T13:03:13.761Z,96229
2023-05-19T13:04:13.763Z,96229
2023-05-19T13:05:13.672Z,96233
2023-05-19T13:07:13.723Z,96230
2023-05-19T13:08:13.710Z,96225
2023-05-19T13:09:14.723Z,96225
2023-05-19T13:10:13.688Z,96226
2023-05-19T13:11:13.734Z,96226
2023-05-19T13:12:13.682Z,96226
2023-05-19T13:13:13.658Z,96227
2023-05-19T13:14:13.701Z,96222
2023-05-19T13:15:13.700Z,96228
2023-05-19T13:16:13.736Z,96229
2023-05-19T13:17:13.677Z,96226
2023-05-19T13:18:13.743Z,96226
2023-05-19T13:20:13.750Z,96224
2023-05-19T13:21:13.718Z,96225
2023-05-19T13:22:13.736Z,96226
2023-05-19T13:23:13.762Z,96226
2023-05-19T13:24:13.758Z,96228
2023-05-19T13:25:13.701Z,96229
2023-05-19T13:26:13.759Z,96226
2023-05-19T13:27:13.738Z,96226
2023-05-19T13:28:13.708Z,96226
2023-05-19T13:29:13.758Z,96228
2023-05-19T13:30:13.695Z,96228
2023-05-19T13:31:13.799Z,96228
2023-05-19T13:32:13.777Z,96225
2023-05-19T13:33:13.862Z,96223
2023-05-19T13:34:13.746Z,96218
2023-05-19T13:35:13.746Z,96220
2023-05-19T13:36:13.780Z,96220
2023-05-19T13:37:13.852Z,96223
2023-05-19T13:38:13.735Z,96223
2023-05-19T13:39:13.719Z,96215
2023-05-19T13:40:13.801Z,96217
2023-05-19T13:41:15.208Z,96217
2023-05-19T13:42:13.733Z,96217
2023-05-19T13:43:13.771Z,96216
2023-05-19T13:44:13.804Z,96218
2023-05-19T13:45:13.815Z,96216
2023-05-19T13:48:13.822Z,96215
2023-05-19T13:49:13.805Z,96216
2023-05-19T13:50:13.793Z,96217
2023-05-19T13:51:13.767Z,96217
2023-05-19T13:52:13.823Z,96218
2023-05-19T13:53:13.837Z,96218
2023-05-19T13:54:13.800Z,96215
2023-05-19T13:55:13.829Z,96217
2023-05-19T13:56:13.794Z,96211
2023-05-19T13:57:13.799Z,96211
2023-05-19T13:58:13.820Z,96214
2023-05-19T13:59:13.801Z,96216
2023-05-19T14:00:13.833Z,96216
2023-05-19T14:01:13.821Z,96221